Time;durP1;ratioP1;P1;durP2;ratioP2;P2;SDS_P1;SDS_P2;PMS_P1;PMS_P2;Temp;Humidity;BMP_temperature;BMP_pressure;BME280_temperature;BME280_humidity;BME280_pressure;Samples;Min_cycle;Max_cycle;Signal;HPM_P1;HPM_P2
2022/09/13 00:00:51;;;;;;;20.02;17.98;;;16.80;89.70;;;;;;4971183;28;20066;-58
2022/09/13 00:03:17;;;;;;;20.65;18.60;;;16.80;89.70;;;;;;4970888;28;20030;-58
2022/09/13 00:05:42;;;;;;;22.98;20.58;;;16.80;89.70;;;;;;4988366;28;20057;-57
2022/09/13 00:08:08;;;;;;;22.60;19.23;;;16.80;89.70;;;;;;4970787;28;20033;-58
2022/09/13 00:10:36;;;;;;;23.52;21.13;;;16.80;89.80;;;;;;4972824;28;20077;-56
2022/09/13 00:13:02;;;;;;;22.90;20.55;;;16.80;89.90;;;;;;4969957;28;20436;-58
2022/09/13 00:15:28;;;;;;;22.42;20.17;;;16.70;89.80;;;;;;4974423;28;20030;-58
2022/09/13 00:17:54;;;;;;;23.33;20.90;;;16.70;90.00;;;;;;4989567;28;20034;-58
2022/09/13 00:20:20;;;;;;;21.63;19.33;;;16.70;89.90;;;;;;4990215;28;20022;-57
2022/09/13 00:22:46;;;;;;;23.65;21.30;;;16.70;90.00;;;;;;4990225;28;20037;-56
2022/09/13 00:25:11;;;;;;;24.23;21.80;;;16.70;89.90;;;;;;4989377;28;20026;-55
2022/09/13 00:27:37;;;;;;;22.30;20.20;;;16.70;90.00;;;;;;4972282;28;20443;-57
2022/09/13 00:30:05;;;;;;;22.38;20.08;;;16.70;90.00;;;;;;4970941;28;20826;-57
2022/09/13 00:32:31;;;;;;;22.73;20.33;;;16.70;90.10;;;;;;4975208;28;20031;-56
2022/09/13 00:34:57;;;;;;;25.55;22.88;;;16.70;90.00;;;;;;4991280;28;20081;-57
2022/09/13 00:37:22;;;;;;;23.48;21.02;;;16.70;90.10;;;;;;4994558;28;20507;-55
2022/09/13 00:39:48;;;;;;;23.13;20.55;;;16.70;90.20;;;;;;5009832;28;20023;-57
2022/09/13 00:42:14;;;;;;;28.23;22.75;;;16.70;90.20;;;;;;4995609;28;20031;-56
2022/09/13 00:44:54;;;;;;;24.13;21.92;;;16.70;90.30;;;;;;4974598;28;20074;-56
2022/09/13 00:47:40;;;;;;;24.60;21.33;;;16.70;90.30;;;;;;4973998;28;20040;-57
2022/09/13 00:50:35;;;;;;;22.25;19.85;;;16.70;90.40;;;;;;4974877;28;20113;-55
2022/09/13 00:53:08;;;;;;;25.58;22.95;;;16.70;90.40;;;;;;4993720;28;20030;-55
2022/09/13 00:55:47;;;;;;;22.25;19.95;;;16.70;90.50;;;;;;4992494;28;20387;-56
2022/09/13 00:58:19;;;;;;;21.08;18.83;;;16.70;90.50;;;;;;4992584;28;20113;-56
2022/09/13 01:00:46;;;;;;;22.13;19.83;;;16.70;90.50;;;;;;5009346;28;20027;-56
2022/09/13 01:03:14;;;;;;;22.65;19.02;;;16.70;90.40;;;;;;4993575;28;20088;-58
2022/09/13 01:05:48;;;;;;;21.77;19.52;;;16.70;90.40;;;;;;4993849;28;20104;-60
2022/09/13 01:08:19;;;;;;;23.90;19.40;;;16.80;90.50;;;;;;5005016;28;20027;-64
2022/09/13 01:10:49;;;;;;;22.77;20.23;;;16.80;90.50;;;;;;4973841;28;20019;-64
2022/09/13 01:13:25;;;;;;;24.77;20.33;;;16.90;90.50;;;;;;4989708;28;20448;-61
2022/09/13 01:15:51;;;;;;;26.33;21.55;;;16.80;90.50;;;;;;4974333;28;20033;-60
2022/09/13 01:18:18;;;;;;;23.95;21.45;;;16.80;90.60;;;;;;4973293;28;20023;-59
2022/09/13 01:21:08;;;;;;;22.90;19.55;;;16.80;90.70;;;;;;4973939;28;20134;-58
2022/09/13 01:23:42;;;;;;;;;;;16.80;90.80;;;;;;4989530;28;20027;-58
2022/09/13 01:26:10;;;;;;;23.95;20.85;;;16.80;90.80;;;;;;4989784;28;19909;-59
2022/09/13 01:28:47;;;;;;;22.85;19.95;;;16.80;90.90;;;;;;4992305;28;20040;-58
2022/09/13 01:31:36;;;;;;;22.65;20.27;;;16.80;90.90;;;;;;4992527;28;20030;-58
2022/09/13 01:34:27;;;;;;;21.08;18.88;;;16.80;91.00;;;;;;4993158;28;20039;-57
2022/09/13 01:37:28;;;;;;;20.55;18.08;;;16.80;91.10;;;;;;4991992;28;20061;-57
2022/09/13 01:40:31;;;;;;;21.38;17.58;;;16.80;91.20;;;;;;4974314;28;20053;-54
2022/09/13 01:43:11;;;;;;;20.02;16.98;;;16.80;91.20;;;;;;4975589;28;20448;-57
2022/09/13 01:45:44;;;;;;;20.55;17.50;;;16.80;91.30;;;;;;4973378;28;20121;-57
2022/09/13 01:48:28;;;;;;;20.27;17.85;;;16.80;91.30;;;;;;4989687;28;20036;-54
2022/09/13 01:51:03;;;;;;;22.50;16.67;;;16.80;91.40;;;;;;4992748;28;20026;-55
2022/09/13 01:54:07;;;;;;;22.90;17.33;;;16.80;91.40;;;;;;4992467;28;20050;-57
2022/09/13 01:56:42;;;;;;;21.77;18.08;;;16.90;91.40;;;;;;4973748;28;20026;-56
2022/09/13 01:59:38;;;;;;;21.95;19.02;;;16.90;91.30;;;;;;4992632;28;20414;-56
2022/09/13 02:02:15;;;;;;;20.85;17.75;;;16.90;91.30;;;;;;4992473;28;20447;-56
2022/09/13 02:04:53;;;;;;;24.25;18.08;;;16.90;91.30;;;;;;4992583;28;20117;-54
2022/09/13 02:07:26;;;;;;;19.30;17.13;;;16.90;91.30;;;;;;4990800;28;20369;-57
2022/09/13 02:09:58;;;;;;;22.88;18.75;;;16.90;91.30;;;;;;4992760;28;20454;-56
2022/09/13 02:12:27;;;;;;;22.05;19.23;;;16.90;91.30;;;;;;4991420;28;20023;-53
2022/09/13 02:15:14;;;;;;;22.87;19.80;;;16.90;91.40;;;;;;4992533;28;20084;-58
2022/09/13 02:18:02;;;;;;;24.17;20.48;;;16.90;91.50;;;;;;5006933;28;20034;-61
2022/09/13 02:20:32;;;;;;;30.42;22.95;;;16.90;91.50;;;;;;4991328;28;20022;-66
2022/09/13 02:23:03;;;;;;;25.88;20.40;;;16.90;91.70;;;;;;4991339;28;20022;-66
2022/09/13 02:25:31;;;;;;;25.38;21.80;;;16.90;91.70;;;;;;4992455;28;20081;-64
2022/09/13 02:28:02;;;;;;;28.60;22.88;;;16.90;91.90;;;;;;4979466;28;20121;-65
2022/09/13 02:30:33;;;;;;;26.45;23.75;;;16.90;92.10;;;;;;4972922;28;20054;-66
2022/09/13 02:33:14;;;;;;;28.77;22.80;;;16.80;92.10;;;;;;4972868;28;20167;-67
2022/09/13 02:35:50;;;;;;;25.05;22.00;;;16.80;92.20;;;;;;4971886;28;20785;-66
2022/09/13 02:38:29;;;;;;;26.85;22.02;;;16.80;92.40;;;;;;4971630;28;20081;-66
2022/09/13 02:41:04;;;;;;;31.20;24.67;;;16.80;92.40;;;;;;4972597;28;20080;-61
2022/09/13 02:43:41;;;;;;;31.30;25.55;;;16.80;92.40;;;;;;4973918;28;20035;-61
2022/09/13 02:46:39;;;;;;;29.17;25.08;;;16.80;92.60;;;;;;4972634;28;20081;-63
2022/09/13 02:49:23;;;;;;;33.15;25.75;;;16.80;92.70;;;;;;4972289;28;20089;-66
2022/09/13 02:52:11;;;;;;;32.00;26.02;;;16.70;92.80;;;;;;4972846;28;20500;-61
2022/09/13 02:54:56;;;;;;;35.75;26.52;;;16.80;92.90;;;;;;4972396;28;20122;-59
2022/09/13 02:57:49;;;;;;;37.00;27.08;;;16.80;93.00;;;;;;4972495;28;20034;-57
2022/09/13 03:00:15;;;;;;;32.08;25.50;;;16.70;93.00;;;;;;4971061;28;20039;-55
2022/09/13 03:02:44;;;;;;;37.83;28.92;;;16.80;93.10;;;;;;4972022;28;20031;-64
2022/09/13 03:05:10;;;;;;;30.83;26.70;;;16.70;93.20;;;;;;4970962;28;20043;-66
2022/09/13 03:07:36;;;;;;;27.13;20.67;;;16.70;93.30;;;;;;4971336;28;20055;-63
2022/09/13 03:10:09;;;;;;;18.38;13.43;;;16.70;93.20;;;;;;4971486;28;20097;-63
2022/09/13 03:12:46;;;;;;;10.23;7.55;;;16.50;93.20;;;;;;4972543;28;20035;-63
2022/09/13 03:15:44;;;;;;;9.82;4.72;;;16.40;93.20;;;;;;4971474;28;20031;-63
2022/09/13 03:18:47;;;;;;;6.40;2.15;;;16.30;93.00;;;;;;4971657;28;20349;-56
2022/09/13 03:21:27;;;;;;;5.25;2.30;;;16.20;93.00;;;;;;4971402;28;20078;-55
2022/09/13 03:24:29;;;;;;;5.70;2.00;;;16.20;93.00;;;;;;4971304;28;20125;-52
2022/09/13 03:27:23;;;;;;;4.15;1.58;;;16.20;93.10;;;;;;4971142;28;20438;-49
2022/09/13 03:30:03;;;;;;;3.50;1.25;;;16.20;93.10;;;;;;4989165;28;20359;-49
2022/09/13 03:32:43;;;;;;;3.95;1.50;;;16.20;93.00;;;;;;5005523;28;20451;-50
2022/09/13 03:35:22;;;;;;;3.35;1.25;;;16.20;93.00;;;;;;4989260;28;20108;-50
2022/09/13 03:38:09;;;;;;;2.22;1.00;;;16.20;93.00;;;;;;4973646;28;20486;-52
2022/09/13 03:40:55;;;;;;;4.22;1.15;;;16.20;92.90;;;;;;4970487;28;20098;-51
2022/09/13 03:43:39;;;;;;;4.63;1.30;;;16.20;92.90;;;;;;4972595;28;20015;-51
2022/09/13 03:46:09;;;;;;;3.47;1.10;;;16.20;93.00;;;;;;4970232;28;20055;-50
2022/09/13 03:48:39;;;;;;;3.95;1.40;;;16.20;93.00;;;;;;4970412;28;20041;-52
2022/09/13 03:51:05;;;;;;;3.80;1.92;;;16.30;93.00;;;;;;4970327;28;20083;-53
2022/09/13 03:53:36;;;;;;;4.65;1.60;;;16.20;93.00;;;;;;4978031;28;20045;-49
2022/09/13 03:56:14;;;;;;;4.32;2.22;;;16.20;93.00;;;;;;4990110;28;20109;-55
2022/09/13 03:58:40;;;;;;;5.00;2.80;;;16.20;93.00;;;;;;4984376;28;20030;-54
2022/09/13 04:01:09;;;;;;;8.32;4.28;;;16.20;93.00;;;;;;4981141;28;20022;-53
2022/09/13 04:03:37;;;;;;;7.22;4.90;;;16.20;93.10;;;;;;4990613;28;20030;-55
2022/09/13 04:06:06;;;;;;;12.02;7.20;;;16.30;93.10;;;;;;4990667;28;20147;-53
2022/09/13 04:08:34;;;;;;;10.95;6.68;;;16.30;93.20;;;;;;4990535;28;20035;-53
2022/09/13 04:11:00;;;;;;;9.32;6.53;;;16.30;93.20;;;;;;4989518;28;20313;-55
2022/09/13 04:13:25;;;;;;;9.38;7.22;;;16.30;93.20;;;;;;5003556;28;20041;-51
2022/09/13 04:15:53;;;;;;;12.23;7.32;;;16.40;93.30;;;;;;4970988;28;20034;-49
2022/09/13 04:18:19;;;;;;;13.32;9.95;;;16.40;93.30;;;;;;4971212;28;20026;-54
2022/09/13 04:20:55;;;;;;;15.80;10.93;;;16.40;93.40;;;;;;4970800;28;20471;-53
2022/09/13 04:23:22;;;;;;;13.93;10.90;;;16.40;93.40;;;;;;4979346;28;20030;-52
2022/09/13 04:25:50;;;;;;;12.20;10.35;;;16.50;93.40;;;;;;4990442;28;20042;-50
2022/09/13 04:28:17;;;;;;;12.50;9.15;;;16.50;93.50;;;;;;4989165;28;20022;-54
2022/09/13 04:30:51;;;;;;;13.45;9.40;;;16.50;93.50;;;;;;4971682;28;20035;-52
2022/09/13 04:33:19;;;;;;;11.05;7.35;;;16.60;93.60;;;;;;4978205;28;20027;-52
2022/09/13 04:35:46;;;;;;;11.57;6.88;;;16.60;93.60;;;;;;4990058;28;20450;-52
2022/09/13 04:38:13;;;;;;;10.32;6.88;;;16.60;93.60;;;;;;4990389;28;20448;-53
2022/09/13 04:40:39;;;;;;;11.68;7.20;;;16.70;93.70;;;;;;4990111;28;20026;-51
2022/09/13 04:43:05;;;;;;;12.07;7.38;;;16.70;93.70;;;;;;4990083;28;20030;-54
2022/09/13 04:45:31;;;;;;;10.52;7.07;;;16.70;93.70;;;;;;4973601;28;20047;-51
2022/09/13 04:47:56;;;;;;;14.35;7.05;;;16.70;93.70;;;;;;4970575;28;20464;-50
2022/09/13 04:50:24;;;;;;;10.13;7.20;;;16.80;93.70;;;;;;4970881;28;20065;-49
2022/09/13 04:52:52;;;;;;;11.30;8.73;;;16.70;93.70;;;;;;4970782;28;20041;-49
2022/09/13 04:55:18;;;;;;;15.75;9.75;;;16.80;93.70;;;;;;4985532;28;20034;-55
2022/09/13 04:57:44;;;;;;;11.32;7.50;;;16.80;93.70;;;;;;4990006;28;20333;-54
2022/09/13 05:00:10;;;;;;;12.80;9.20;;;16.80;93.80;;;;;;4978471;28;20070;-52
2022/09/13 05:02:38;;;;;;;9.73;7.63;;;16.80;93.80;;;;;;4970555;28;20022;-55
2022/09/13 05:05:04;;;;;;;17.73;10.27;;;16.80;93.80;;;;;;4982665;28;20069;-56
2022/09/13 05:07:29;;;;;;;15.02;9.48;;;16.80;93.80;;;;;;4989274;28;20061;-57
2022/09/13 05:09:55;;;;;;;12.38;9.00;;;16.80;93.80;;;;;;5005242;28;20030;-55
2022/09/13 05:12:21;;;;;;;13.10;10.32;;;16.80;93.80;;;;;;4989622;28;20502;-57
2022/09/13 05:14:46;;;;;;;14.38;10.20;;;16.80;93.80;;;;;;4982405;28;20027;-57
2022/09/13 05:17:12;;;;;;;13.15;9.48;;;16.80;93.80;;;;;;4969392;28;20066;-59
2022/09/13 05:19:37;;;;;;;10.98;8.23;;;16.80;93.80;;;;;;4969127;28;20023;-58
2022/09/13 05:22:03;;;;;;;9.98;6.93;;;16.80;93.90;;;;;;4971646;28;20427;-58
2022/09/13 05:24:29;;;;;;;11.50;6.85;;;16.80;93.90;;;;;;4973069;28;20031;-51
2022/09/13 05:26:54;;;;;;;10.43;5.78;;;16.80;93.90;;;;;;4987513;28;20377;-52
2022/09/13 05:29:20;;;;;;;11.35;5.40;;;16.80;93.90;;;;;;4974041;28;20122;-54
2022/09/13 05:31:46;;;;;;;10.90;5.07;;;16.80;93.90;;;;;;4973272;28;20031;-50
2022/09/13 05:34:14;;;;;;;11.90;4.28;;;16.80;93.90;;;;;;4971637;28;20126;-49
2022/09/13 05:36:43;;;;;;;11.52;3.63;;;16.80;94.00;;;;;;4978483;28;20041;-52
2022/09/13 05:39:20;;;;;;;8.20;3.50;;;16.80;93.90;;;;;;4992073;28;20076;-48
2022/09/13 05:41:46;;;;;;;7.78;3.17;;;16.80;93.90;;;;;;4992632;28;20026;-51
2022/09/13 05:44:14;;;;;;;5.93;3.00;;;16.80;93.90;;;;;;4985522;28;20049;-52
2022/09/13 05:46:42;;;;;;;7.85;2.45;;;16.80;93.90;;;;;;4973570;28;20404;-52
2022/09/13 05:49:07;;;;;;;6.97;3.58;;;16.90;94.00;;;;;;4972984;28;20161;-49
2022/09/13 05:51:33;;;;;;;9.88;2.90;;;16.90;93.90;;;;;;4988266;28;20130;-50
2022/09/13 05:53:59;;;;;;;7.15;2.03;;;16.90;93.90;;;;;;4976302;28;20293;-49
2022/09/13 05:56:27;;;;;;;6.82;2.95;;;16.90;93.90;;;;;;4992653;28;20027;-48
2022/09/13 05:58:54;;;;;;;10.97;3.23;;;16.90;93.90;;;;;;4991681;28;20034;-50
2022/09/13 06:01:22;;;;;;;5.82;2.40;;;16.90;93.90;;;;;;4973498;28;20105;-54
2022/09/13 06:03:53;;;;;;;13.02;3.08;;;16.90;93.90;;;;;;4972055;28;20038;-53
2022/09/13 06:06:22;;;;;;;8.07;2.28;;;16.90;93.80;;;;;;4981962;28;20026;-50
2022/09/13 06:08:51;;;;;;;10.48;2.30;;;16.90;93.70;;;;;;4992669;28;20459;-51
2022/09/13 06:11:17;;;;;;;12.50;2.67;;;16.90;93.60;;;;;;4992868;28;20451;-54
2022/09/13 06:13:43;;;;;;;12.55;1.58;;;16.80;93.50;;;;;;4992698;28;20030;-49
2022/09/13 06:16:10;;;;;;;8.73;2.58;;;16.80;93.50;;;;;;4975742;28;20039;-51
2022/09/13 06:18:36;;;;;;;11.70;2.92;;;16.80;93.40;;;;;;4971371;28;20097;-53
2022/09/13 06:21:06;;;;;;;8.63;2.30;;;16.90;93.40;;;;;;4973201;28;20344;-49
2022/09/13 06:23:32;;;;;;;11.38;2.88;;;16.90;93.30;;;;;;4972045;28;20385;-53
2022/09/13 06:26:02;;;;;;;13.55;2.63;;;16.90;93.30;;;;;;4989521;28;20411;-51
2022/09/13 06:28:28;;;;;;;14.98;3.65;;;16.90;93.10;;;;;;5007511;28;20428;-50
2022/09/13 06:31:05;;;;;;;9.93;2.63;;;16.90;92.90;;;;;;4979340;28;20081;-52
2022/09/13 06:33:32;;;;;;;5.45;1.60;;;16.90;92.90;;;;;;4971418;28;20219;-52
2022/09/13 06:36:06;;;;;;;9.02;2.38;;;16.80;92.60;;;;;;4972839;28;20043;-48
2022/09/13 06:38:31;;;;;;;12.63;2.70;;;16.80;92.60;;;;;;4971320;28;20034;-49
2022/09/13 06:41:14;;;;;;;9.18;2.60;;;16.80;92.40;;;;;;4985755;28;20030;-52
2022/09/13 06:43:40;;;;;;;12.82;2.38;;;16.90;92.50;;;;;;4990472;28;20422;-48
2022/09/13 06:46:14;;;;;;;9.25;2.50;;;16.90;92.30;;;;;;4978638;28;20050;-49
2022/09/13 06:48:41;;;;;;;12.80;2.60;;;16.80;92.00;;;;;;4972272;28;20114;-48
2022/09/13 06:51:13;;;;;;;8.07;2.45;;;16.80;91.80;;;;;;4987156;28;20051;-47
2022/09/13 06:53:40;;;;;;;9.65;2.22;;;16.80;91.50;;;;;;4986329;28;20089;-52
2022/09/13 06:56:09;;;;;;;6.18;2.00;;;16.80;91.30;;;;;;4972382;28;20476;-46
2022/09/13 06:58:36;;;;;;;8.60;1.73;;;16.70;90.70;;;;;;4971423;28;20031;-48
2022/09/13 07:01:10;;;;;;;12.30;1.67;;;16.60;89.90;;;;;;4974320;28;20031;-48
2022/09/13 07:03:41;;;;;;;7.03;1.73;;;16.60;89.30;;;;;;4971738;28;20412;-47
2022/09/13 07:06:18;;;;;;;5.40;1.50;;;16.50;88.70;;;;;;4971880;28;20036;-46
2022/09/13 07:08:45;;;;;;;8.18;2.47;;;16.50;88.30;;;;;;4971183;28;20038;-49
2022/09/13 07:11:12;;;;;;;10.63;1.50;;;16.40;87.90;;;;;;4986875;28;20045;-46
2022/09/13 07:13:39;;;;;;;10.02;1.25;;;16.40;87.50;;;;;;4986489;28;20039;-47
2022/09/13 07:16:07;;;;;;;14.70;2.38;;;16.40;87.50;;;;;;4984098;28;20048;-49
2022/09/13 07:18:33;;;;;;;8.05;1.90;;;16.50;87.70;;;;;;4991312;28;20026;-46
2022/09/13 07:21:06;;;;;;;9.20;2.65;;;16.50;87.50;;;;;;4991581;28;20030;-45
2022/09/13 07:23:33;;;;;;;9.73;2.20;;;16.60;87.40;;;;;;5006809;28;20034;-44
2022/09/13 07:26:04;;;;;;;9.88;1.60;;;16.60;87.20;;;;;;4989915;28;20104;-45
2022/09/13 07:28:35;;;;;;;12.45;2.33;;;16.70;86.70;;;;;;4990831;28;20037;-44
2022/09/13 07:31:22;;;;;;;6.10;1.35;;;16.70;86.30;;;;;;5004683;28;20092;-47
2022/09/13 07:33:55;;;;;;;7.07;1.45;;;16.80;86.40;;;;;;4989290;28;20026;-45
2022/09/13 07:36:22;;;;;;;15.05;2.42;;;16.90;85.40;;;;;;4987334;28;20037;-45
2022/09/13 07:38:51;;;;;;;6.53;1.30;;;17.10;83.80;;;;;;4970982;28;20054;-45
2022/09/13 07:41:19;;;;;;;9.32;1.50;;;17.30;82.90;;;;;;4971356;28;20051;-47
2022/09/13 07:43:46;;;;;;;7.30;1.60;;;17.50;82.40;;;;;;4971024;28;20038;-45
2022/09/13 07:46:14;;;;;;;6.57;1.25;;;17.80;81.70;;;;;;4972304;28;20073;-45
2022/09/13 07:48:44;;;;;;;9.88;2.25;;;17.90;79.40;;;;;;4971095;28;20503;-45
2022/09/13 07:51:33;;;;;;;8.88;1.80;;;18.10;79.30;;;;;;4974055;28;20479;-45
2022/09/13 07:54:02;;;;;;;7.03;1.10;;;18.40;79.20;;;;;;4971270;28;20039;-47
2022/09/13 07:56:33;;;;;;;6.55;1.27;;;18.50;77.40;;;;;;4971371;28;20031;-47
2022/09/13 07:59:07;;;;;;;6.22;1.23;;;18.60;76.90;;;;;;4973418;28;20109;-45
2022/09/13 08:01:43;;;;;;;6.43;1.20;;;18.90;76.50;;;;;;4977896;28;20058;-45
2022/09/13 08:04:13;;;;;;;8.07;1.40;;;19.00;75.60;;;;;;4985145;28;20117;-46
2022/09/13 08:06:43;;;;;;;5.88;1.35;;;19.10;75.00;;;;;;4990721;28;20065;-46
2022/09/13 08:09:10;;;;;;;5.70;1.45;;;19.20;75.10;;;;;;5006167;28;20104;-50
2022/09/13 08:11:55;;;;;;;9.88;1.70;;;19.40;73.90;;;;;;4989249;28;20034;-45
2022/09/13 08:14:22;;;;;;;7.75;1.90;;;19.40;72.50;;;;;;4988701;28;20038;-47
2022/09/13 08:16:49;;;;;;;9.57;1.85;;;19.30;72.90;;;;;;5004104;28;20073;-46
2022/09/13 08:19:17;;;;;;;6.38;1.55;;;19.30;72.00;;;;;;4989718;28;20039;-48
2022/09/13 08:21:45;;;;;;;5.97;1.40;;;19.00;70.70;;;;;;5004747;28;20640;-45
2022/09/13 08:24:18;;;;;;;5.43;1.08;;;18.80;71.50;;;;;;4988770;28;20129;-46
2022/09/13 08:26:44;;;;;;;5.43;1.35;;;19.10;71.70;;;;;;4989132;28;20022;-46
2022/09/13 08:29:11;;;;;;;7.65;1.48;;;19.40;72.00;;;;;;4990430;28;20371;-46
2022/09/13 08:31:38;;;;;;;5.78;1.92;;;19.40;70.10;;;;;;4975099;28;20037;-45
2022/09/13 08:34:11;;;;;;;7.20;1.48;;;19.00;70.40;;;;;;4970282;28;20042;-45
2022/09/13 08:36:39;;;;;;;8.55;1.85;;;19.00;70.80;;;;;;4985058;28;20448;-46
2022/09/13 08:39:07;;;;;;;5.75;1.33;;;19.20;70.50;;;;;;4970892;28;20023;-47
2022/09/13 08:41:44;;;;;;;14.05;1.58;;;19.70;71.50;;;;;;4985042;28;20080;-46
2022/09/13 08:44:27;;;;;;;4.75;1.20;;;20.20;69.10;;;;;;4990302;28;20166;-46
2022/09/13 08:47:23;;;;;;;6.22;1.60;;;20.40;69.40;;;;;;4976349;28;20046;-46
2022/09/13 08:50:05;;;;;;;6.28;1.40;;;20.20;68.20;;;;;;4964982;28;20043;-50
2022/09/13 08:52:49;;;;;;;5.43;1.15;;;20.10;67.70;;;;;;4991786;28;20032;-47
2022/09/13 08:55:47;;;;;;;8.52;1.35;;;20.10;68.90;;;;;;4988596;28;20035;-46
2022/09/13 08:58:43;;;;;;;7.05;1.65;;;20.00;69.30;;;;;;4975408;28;20485;-47
2022/09/13 09:01:22;;;;;;;7.07;1.40;;;19.50;68.10;;;;;;4991341;28;20121;-47
2022/09/13 09:04:06;;;;;;;8.00;1.40;;;19.40;69.10;;;;;;4993832;28;20443;-46
2022/09/13 09:06:35;;;;;;;8.63;2.20;;;19.10;69.70;;;;;;4993636;28;20076;-45
2022/09/13 09:09:20;;;;;;;7.80;1.00;;;18.80;71.60;;;;;;4993801;28;20101;-45
2022/09/13 09:12:37;;;;;;;6.72;1.50;;;18.90;71.10;;;;;;4997588;28;20052;-45
2022/09/13 09:15:21;;;;;;;8.13;1.00;;;19.40;68.80;;;;;;4971929;28;20198;-48
2022/09/13 09:18:10;;;;;;;11.85;1.98;;;19.90;66.80;;;;;;4968918;28;20040;-46
2022/09/13 09:20:46;;;;;;;8.88;1.38;;;20.20;66.00;;;;;;4953097;29;20027;-45
2022/09/13 09:23:18;;;;;;;4.93;2.05;;;20.70;67.10;;;;;;4961016;28;20038;-46
2022/09/13 09:25:46;;;;;;;5.70;1.40;;;20.80;63.50;;;;;;4972073;28;20389;-47
2022/09/13 09:28:16;;;;;;;6.07;1.20;;;20.60;64.40;;;;;;4955823;28;20039;-46
2022/09/13 09:31:03;;;;;;;5.53;1.00;;;20.70;64.00;;;;;;4955047;28;20046;-45
2022/09/13 09:34:02;;;;;;;8.23;1.40;;;20.70;63.00;;;;;;4971850;28;20046;-46
2022/09/13 09:36:36;;;;;;;12.88;1.60;;;20.80;63.40;;;;;;4971703;28;20546;-48
2022/09/13 09:39:11;;;;;;;6.72;1.83;;;20.70;63.60;;;;;;4971975;28;20146;-46
2022/09/13 09:41:38;;;;;;;6.63;1.15;;;20.90;62.00;;;;;;4970914;28;20109;-46
2022/09/13 09:44:20;;;;;;;5.85;1.35;;;20.60;61.00;;;;;;4971423;28;20400;-52
2022/09/13 09:46:56;;;;;;;6.15;1.35;;;20.70;62.20;;;;;;4965491;28;20054;-47
2022/09/13 09:52:55;;;;;;;5.80;0.90;;;20.70;61.80;;;;;;4973440;28;20794;-46
2022/09/13 09:55:36;;;;;;;9.57;1.75;;;19.90;63.70;;;;;;4992012;28;20034;-46
2022/09/13 09:58:07;;;;;;;6.35;1.63;;;20.00;64.70;;;;;;4992914;28;20125;-49
2022/09/13 10:00:52;;;;;;;9.00;2.08;;;20.30;63.80;;;;;;4992984;28;20022;-49
2022/09/13 10:03:24;;;;;;;5.40;1.30;;;20.70;63.10;;;;;;4975705;28;20054;-47
2022/09/13 10:06:04;;;;;;;5.25;1.25;;;20.80;63.00;;;;;;4973414;28;20030;-47
2022/09/13 10:08:35;;;;;;;4.43;1.33;;;20.10;61.10;;;;;;4983574;28;20089;-48
2022/09/13 10:11:03;;;;;;;3.90;1.40;;;20.30;62.90;;;;;;4992698;28;20097;-48
2022/09/13 10:13:31;;;;;;;7.13;1.35;;;20.40;62.30;;;;;;4992140;28;20034;-46
2022/09/13 10:16:02;;;;;;;5.93;1.10;;;20.40;61.60;;;;;;4992542;28;20018;-46
2022/09/13 10:18:34;;;;;;;5.90;1.02;;;20.40;62.60;;;;;;4991356;28;20030;-46
2022/09/13 10:21:17;;;;;;;5.05;1.23;;;20.10;62.70;;;;;;5007664;28;20026;-46
2022/09/13 10:23:46;;;;;;;8.07;1.20;;;20.20;63.90;;;;;;4991384;28;20030;-46
2022/09/13 10:26:32;;;;;;;8.40;1.67;;;20.50;63.50;;;;;;5007758;28;20057;-46
2022/09/13 10:29:17;;;;;;;8.50;1.27;;;20.70;61.50;;;;;;4992077;28;20026;-48
2022/09/13 10:31:47;;;;;;;7.72;1.13;;;20.60;60.70;;;;;;4991527;28;20336;-46
2022/09/13 10:34:34;;;;;;;7.00;1.17;;;20.00;60.50;;;;;;4983565;28;20603;-47
2022/09/13 10:37:11;;;;;;;5.07;1.20;;;20.00;61.80;;;;;;4972731;28;20038;-47
2022/09/13 10:39:48;;;;;;;6.18;1.48;;;20.30;59.30;;;;;;4972175;28;20023;-48
2022/09/13 10:42:22;;;;;;;6.13;1.05;;;20.40;61.70;;;;;;4972120;28;20030;-47
2022/09/13 10:45:01;;;;;;;4.68;1.10;;;20.80;59.40;;;;;;4971530;28;20622;-46
2022/09/13 10:47:34;;;;;;;6.05;1.02;;;21.00;58.40;;;;;;4991954;28;20457;-48
2022/09/13 10:50:23;;;;;;;5.57;1.00;;;21.00;59.20;;;;;;4990989;28;20077;-50
2022/09/13 10:52:55;;;;;;;3.88;0.80;;;21.20;57.10;;;;;;4991208;28;20034;-49
2022/09/13 10:55:39;;;;;;;8.38;1.27;;;21.20;58.10;;;;;;5005370;28;20030;-46
2022/09/13 10:58:07;;;;;;;4.60;1.30;;;21.40;59.10;;;;;;4971615;28;20022;-48
2022/09/13 11:01:11;;;;;;;6.22;1.48;;;21.30;57.30;;;;;;4971920;28;20030;-46
2022/09/13 11:03:55;;;;;;;6.40;1.48;;;21.00;58.80;;;;;;4975378;28;20086;-46
2022/09/13 11:06:47;;;;;;;5.63;0.98;;;20.80;60.70;;;;;;4971624;28;20352;-46
2022/09/13 11:09:39;;;;;;;6.55;1.20;;;20.90;61.20;;;;;;4971769;28;20019;-48
2022/09/13 11:12:17;;;;;;;7.85;1.38;;;20.90;61.60;;;;;;4971431;28;20043;-47
2022/09/13 11:15:30;;;;;;;8.23;1.85;;;20.60;65.00;;;;;;4971641;28;20031;-46
2022/09/13 11:18:05;;;;;;;8.23;1.55;;;20.30;65.40;;;;;;4975016;28;20029;-49
2022/09/13 11:20:44;;;;;;;10.63;2.00;;;20.00;66.10;;;;;;4971859;28;20023;-46
2022/09/13 11:23:24;;;;;;;8.35;1.60;;;19.80;67.50;;;;;;4970723;28;20026;-48
2022/09/13 11:26:02;;;;;;;8.38;2.08;;;19.70;67.50;;;;;;4971167;28;20141;-47
2022/09/13 11:28:54;;;;;;;8.93;1.90;;;19.40;68.40;;;;;;4971731;28;20081;-48
2022/09/13 11:31:34;;;;;;;7.22;1.60;;;19.80;67.10;;;;;;4971678;28;20023;-46
2022/09/13 11:34:36;;;;;;;7.55;1.52;;;20.30;67.30;;;;;;4998291;28;20034;-50
2022/09/13 11:37:19;;;;;;;9.90;1.65;;;20.60;67.20;;;;;;4991135;28;20044;-46
2022/09/13 11:39:53;;;;;;;5.85;1.40;;;21.00;64.60;;;;;;4990865;28;20022;-47
2022/09/13 11:42:43;;;;;;;7.47;1.40;;;20.60;64.20;;;;;;4991060;28;20376;-48
2022/09/13 11:45:27;;;;;;;7.03;1.70;;;20.20;64.90;;;;;;4990593;28;20046;-46
2022/09/13 11:48:12;;;;;;;8.73;1.55;;;19.70;66.20;;;;;;4990086;28;20371;-49
2022/09/13 11:51:03;;;;;;;9.07;2.15;;;19.40;67.70;;;;;;4990297;28;20033;-48
2022/09/13 11:53:57;;;;;;;11.82;2.30;;;19.30;67.30;;;;;;5005480;28;20126;-50
2022/09/13 11:56:25;;;;;;;9.05;1.88;;;19.40;68.70;;;;;;4989371;28;20470;-47
2022/09/13 11:58:59;;;;;;;7.93;1.90;;;19.40;68.60;;;;;;5005468;28;20033;-45
2022/09/13 12:01:39;;;;;;;7.07;2.05;;;19.40;68.40;;;;;;4990120;28;20065;-48
2022/09/13 12:04:12;;;;;;;8.32;1.48;;;19.70;68.60;;;;;;4982705;28;20511;-49
2022/09/13 12:06:41;;;;;;;7.10;2.45;;;19.80;68.50;;;;;;4970513;28;20105;-49
2022/09/13 12:09:12;;;;;;;8.13;1.57;;;19.80;69.60;;;;;;4970966;28;20042;-48
2022/09/13 12:11:43;;;;;;;7.60;1.75;;;19.90;68.40;;;;;;4970967;28;20444;-47
2022/09/13 12:14:16;;;;;;;9.05;2.00;;;19.90;67.90;;;;;;4978868;28;20452;-46
2022/09/13 12:16:47;;;;;;;9.07;1.60;;;19.90;68.70;;;;;;5005944;28;20030;-46
2022/09/13 12:19:22;;;;;;;9.90;1.98;;;19.80;67.90;;;;;;4983492;28;20027;-49
2022/09/13 12:21:51;;;;;;;6.80;2.20;;;19.90;66.60;;;;;;4970727;28;20372;-52
2022/09/13 12:24:20;;;;;;;5.35;1.58;;;20.10;68.70;;;;;;4972540;28;20058;-47
2022/09/13 12:27:09;;;;;;;11.52;3.00;;;20.20;67.80;;;;;;4971501;28;20564;-46
2022/09/13 12:29:45;;;;;;;7.20;1.65;;;20.20;66.00;;;;;;4970659;28;20042;-48
2022/09/13 12:32:12;;;;;;;9.70;2.13;;;19.90;66.80;;;;;;4970458;28;20031;-45
2022/09/13 12:35:06;;;;;;;8.55;1.70;;;19.80;66.30;;;;;;4972231;28;20058;-47
2022/09/13 12:37:46;;;;;;;11.82;1.85;;;19.50;65.50;;;;;;4970772;28;20093;-47
2022/09/13 12:40:27;;;;;;;7.78;1.58;;;19.50;66.30;;;;;;4970764;28;20031;-48
2022/09/13 12:43:21;;;;;;;10.63;1.73;;;19.60;66.20;;;;;;4969911;28;20041;-46
2022/09/13 12:46:28;;;;;;;8.05;2.05;;;19.80;66.10;;;;;;4988540;28;20173;-48
2022/09/13 12:49:11;;;;;;;9.77;1.83;;;20.00;66.70;;;;;;4985500;28;20174;-52
2022/09/13 12:51:37;;;;;;;9.77;2.22;;;20.20;64.80;;;;;;4970537;28;20027;-46
2022/09/13 12:54:31;;;;;;;5.80;1.30;;;20.10;64.20;;;;;;4970088;28;20045;-48
2022/09/13 12:57:29;;;;;;;7.45;1.52;;;20.10;64.50;;;;;;4969692;28;20094;-46
2022/09/13 13:00:11;;;;;;;10.32;2.35;;;19.50;64.50;;;;;;4985575;28;20029;-49
2022/09/13 13:03:22;;;;;;;7.97;1.95;;;19.40;64.40;;;;;;4985789;28;20050;-48
2022/09/13 13:05:52;;;;;;;8.70;1.98;;;19.30;65.30;;;;;;5007255;28;20037;-48
2022/09/13 13:08:20;;;;;;;11.23;1.85;;;19.60;64.60;;;;;;5007520;28;20070;-47
2022/09/13 13:11:06;;;;;;;7.40;1.88;;;19.80;65.00;;;;;;5007457;28;20112;-49
2022/09/13 13:13:37;;;;;;;6.00;1.33;;;19.80;64.30;;;;;;5007512;28;20041;-47
2022/09/13 13:16:28;;;;;;;5.93;1.58;;;19.60;62.60;;;;;;4989869;28;20033;-46
2022/09/13 13:18:57;;;;;;;7.68;1.35;;;19.40;64.10;;;;;;5007527;28;20447;-46
2022/09/13 13:21:26;;;;;;;10.93;1.63;;;19.40;65.50;;;;;;5006946;28;20054;-48
2022/09/13 13:24:16;;;;;;;6.35;1.45;;;19.50;64.20;;;;;;4991600;28;20380;-47